sensor_id;sensor_type;location;lat;lon;timestamp;temperature;humidity
1413;DHT22;701;52.526;13.408;2023-10-19T00:02:05;8.20;17.00
1413;DHT22;701;52.526;13.408;2023-10-19T00:04:32;8.30;17.00
1413;DHT22;701;52.526;13.408;2023-10-19T00:07:01;8.20;17.10
1413;DHT22;701;52.526;13.408;2023-10-19T00:09:27;8.20;17.10
1413;DHT22;701;52.526;13.408;2023-10-19T00:12:01;8.20;17.10
1413;DHT22;701;52.526;13.408;2023-10-19T00:14:28;8.20;17.00
1413;DHT22;701;52.526;13.408;2023-10-19T00:16:54;8.20;17.10
1413;DHT22;701;52.526;13.408;2023-10-19T00:19:25;8.20;17.10
1413;DHT22;701;52.526;13.408;2023-10-19T00:21:54;8.20;17.10
1413;DHT22;701;52.526;13.408;2023-10-19T00:24:34;8.20;17.00
1413;DHT22;701;52.526;13.408;2023-10-19T00:27:00;8.20;17.10
1413;DHT22;701;52.526;13.408;2023-10-19T00:29:31;8.20;17.20
1413;DHT22;701;52.526;13.408;2023-10-19T00:32:01;8.20;17.10
1413;DHT22;701;52.526;13.408;2023-10-19T00:34:31;8.20;17.10
1413;DHT22;701;52.526;13.408;2023-10-19T00:36:57;8.20;17.20
1413;DHT22;701;52.526;13.408;2023-10-19T00:39:36;8.10;17.20
1413;DHT22;701;52.526;13.408;2023-10-19T00:42:19;8.20;17.50
1413;DHT22;701;52.526;13.408;2023-10-19T00:44:49;8.20;17.50
1413;DHT22;701;52.526;13.408;2023-10-19T00:47:25;8.10;17.50
1413;DHT22;701;52.526;13.408;2023-10-19T00:49:55;8.10;17.60
1413;DHT22;701;52.526;13.408;2023-10-19T00:52:21;8.10;17.70
1413;DHT22;701;52.526;13.408;2023-10-19T00:54:50;8.10;17.80
1413;DHT22;701;52.526;13.408;2023-10-19T00:57:18;8.10;17.80
1413;DHT22;701;52.526;13.408;2023-10-19T00:59:57;8.00;17.90
1413;DHT22;701;52.526;13.408;2023-10-19T01:02:37;8.00;17.90
1413;DHT22;701;52.526;13.408;2023-10-19T01:05:09;8.00;18.10
1413;DHT22;701;52.526;13.408;2023-10-19T01:07:39;8.00;18.00
1413;DHT22;701;52.526;13.408;2023-10-19T01:10:07;8.00;18.10
1413;DHT22;701;52.526;13.408;2023-10-19T01:12:45;8.00;18.30
1413;DHT22;701;52.526;13.408;2023-10-19T01:15:16;8.00;18.30
1413;DHT22;701;52.526;13.408;2023-10-19T01:17:44;7.90;18.30
1413;DHT22;701;52.526;13.408;2023-10-19T01:20:15;7.90;18.90
1413;DHT22;701;52.526;13.408;2023-10-19T01:23:03;7.90;18.40
1413;DHT22;701;52.526;13.408;2023-10-19T01:25:55;7.90;18.50
1413;DHT22;701;52.526;13.408;2023-10-19T01:28:28;7.90;18.40
1413;DHT22;701;52.526;13.408;2023-10-19T01:31:08;7.90;18.50
1413;DHT22;701;52.526;13.408;2023-10-19T01:33:39;7.90;18.60
1413;DHT22;701;52.526;13.408;2023-10-19T01:36:05;7.90;18.70
1413;DHT22;701;52.526;13.408;2023-10-19T01:38:41;7.90;18.70
1413;DHT22;701;52.526;13.408;2023-10-19T01:41:08;7.90;18.80
1413;DHT22;701;52.526;13.408;2023-10-19T01:43:45;7.90;18.90
1413;DHT22;701;52.526;13.408;2023-10-19T01:46:13;7.90;18.80
1413;DHT22;701;52.526;13.408;2023-10-19T01:48:40;7.90;18.80
1413;DHT22;701;52.526;13.408;2023-10-19T01:51:09;7.90;19.30
1413;DHT22;701;52.526;13.408;2023-10-19T01:53:37;7.90;18.70
1413;DHT22;701;52.526;13.408;2023-10-19T01:56:08;7.90;18.70
1413;DHT22;701;52.526;13.408;2023-10-19T01:58:39;7.90;18.70
1413;DHT22;701;52.526;13.408;2023-10-19T02:01:06;7.90;18.70
1413;DHT22;701;52.526;13.408;2023-10-19T02:03:39;7.90;18.70
1413;DHT22;701;52.526;13.408;2023-10-19T02:06:14;7.90;18.60
1413;DHT22;701;52.526;13.408;2023-10-19T02:09:01;7.90;18.70
1413;DHT22;701;52.526;13.408;2023-10-19T02:11:34;7.90;18.70
1413;DHT22;701;52.526;13.408;2023-10-19T02:14:03;7.90;18.60
1413;DHT22;701;52.526;13.408;2023-10-19T02:16:43;7.90;18.50
1413;DHT22;701;52.526;13.408;2023-10-19T02:19:10;8.00;18.50
1413;DHT22;701;52.526;13.408;2023-10-19T02:21:35;8.00;18.50
1413;DHT22;701;52.526;13.408;2023-10-19T02:24:09;8.00;18.40
1413;DHT22;701;52.526;13.408;2023-10-19T02:26:38;8.10;18.30
1413;DHT22;701;52.526;13.408;2023-10-19T02:29:04;8.10;18.20
1413;DHT22;701;52.526;13.408;2023-10-19T02:31:34;8.10;18.20
1413;DHT22;701;52.526;13.408;2023-10-19T02:34:03;8.10;18.00
1413;DHT22;701;52.526;13.408;2023-10-19T02:36:33;8.20;18.10
1413;DHT22;701;52.526;13.408;2023-10-19T02:39:04;8.20;18.00
1413;DHT22;701;52.526;13.408;2023-10-19T02:41:37;8.20;17.80
1413;DHT22;701;52.526;13.408;2023-10-19T02:44:04;8.20;17.70
1413;DHT22;701;52.526;13.408;2023-10-19T02:46:31;8.20;17.70
1413;DHT22;701;52.526;13.408;2023-10-19T02:49:03;8.20;17.60
1413;DHT22;701;52.526;13.408;2023-10-19T02:51:33;8.20;17.60
1413;DHT22;701;52.526;13.408;2023-10-19T02:53:59;8.20;17.50
1413;DHT22;701;52.526;13.408;2023-10-19T02:56:28;8.20;17.50
1413;DHT22;701;52.526;13.408;2023-10-19T02:58:56;8.20;17.40
1413;DHT22;701;52.526;13.408;2023-10-19T03:01:30;8.20;17.50
1413;DHT22;701;52.526;13.408;2023-10-19T03:04:01;8.30;17.50
1413;DHT22;701;52.526;13.408;2023-10-19T03:06:28;8.20;17.50
1413;DHT22;701;52.526;13.408;2023-10-19T03:09:05;8.20;17.50
1413;DHT22;701;52.526;13.408;2023-10-19T03:11:42;8.20;17.50
1413;DHT22;701;52.526;13.408;2023-10-19T03:14:10;8.20;17.50
1413;DHT22;701;52.526;13.408;2023-10-19T03:16:38;8.20;17.50
1413;DHT22;701;52.526;13.408;2023-10-19T03:19:07;8.20;17.60
1413;DHT22;701;52.526;13.408;2023-10-19T03:21:33;8.20;17.40
1413;DHT22;701;52.526;13.408;2023-10-19T03:24:10;8.20;17.50
1413;DHT22;701;52.526;13.408;2023-10-19T03:26:41;8.20;17.50
1413;DHT22;701;52.526;13.408;2023-10-19T03:29:14;8.20;17.50
1413;DHT22;701;52.526;13.408;2023-10-19T03:31:42;8.20;17.40
1413;DHT22;701;52.526;13.408;2023-10-19T03:34:14;8.30;17.50
1413;DHT22;701;52.526;13.408;2023-10-19T03:36:42;8.20;17.50
1413;DHT22;701;52.526;13.408;2023-10-19T03:42:36;8.20;17.50
1413;DHT22;701;52.526;13.408;2023-10-19T03:45:09;8.20;17.40
1413;DHT22;701;52.526;13.408;2023-10-19T03:47:41;8.20;17.50
1413;DHT22;701;52.526;13.408;2023-10-19T03:50:09;8.20;17.50
1413;DHT22;701;52.526;13.408;2023-10-19T03:52:40;8.20;17.60
1413;DHT22;701;52.526;13.408;2023-10-19T03:55:07;8.20;17.60
1413;DHT22;701;52.526;13.408;2023-10-19T03:57:53;8.20;17.60
1413;DHT22;701;52.526;13.408;2023-10-19T04:00:22;8.20;17.50
1413;DHT22;701;52.526;13.408;2023-10-19T04:02:53;8.20;17.60
1413;DHT22;701;52.526;13.408;2023-10-19T04:05:23;8.20;17.60
1413;DHT22;701;52.526;13.408;2023-10-19T04:07:51;8.20;17.60
1413;DHT22;701;52.526;13.408;2023-10-19T04:10:24;8.20;17.70
1413;DHT22;701;52.526;13.408;2023-10-19T04:13:04;8.10;17.70
1413;DHT22;701;52.526;13.408;2023-10-19T04:15:35;8.10;17.70
1413;DHT22;701;52.526;13.408;2023-10-19T04:18:02;8.10;17.70
1413;DHT22;701;52.526;13.408;2023-10-19T04:20:27;8.10;17.80
1413;DHT22;701;52.526;13.408;2023-10-19T04:22:53;8.10;17.80
1413;DHT22;701;52.526;13.408;2023-10-19T04:25:19;8.10;17.90
1413;DHT22;701;52.526;13.408;2023-10-19T04:27:46;8.10;17.90
1413;DHT22;701;52.526;13.408;2023-10-19T04:30:15;8.10;18.00
1413;DHT22;701;52.526;13.408;2023-10-19T04:32:48;8.00;18.00
1413;DHT22;701;52.526;13.408;2023-10-19T04:35:15;8.10;18.10
1413;DHT22;701;52.526;13.408;2023-10-19T04:37:50;8.00;18.10
1413;DHT22;701;52.526;13.408;2023-10-19T04:40:22;8.10;18.10
1413;DHT22;701;52.526;13.408;2023-10-19T04:42:52;8.00;18.20
1413;DHT22;701;52.526;13.408;2023-10-19T04:45:18;8.00;18.30
1413;DHT22;701;52.526;13.408;2023-10-19T04:47:44;8.00;18.30
1413;DHT22;701;52.526;13.408;2023-10-19T04:50:10;8.00;18.40
1413;DHT22;701;52.526;13.408;2023-10-19T04:52:36;8.00;18.40
1413;DHT22;701;52.526;13.408;2023-10-19T04:55:02;7.90;18.50
1413;DHT22;701;52.526;13.408;2023-10-19T04:57:28;7.90;18.50
1413;DHT22;701;52.526;13.408;2023-10-19T04:59:54;7.90;18.50
1413;DHT22;701;52.526;13.408;2023-10-19T05:02:21;7.90;18.60
1413;DHT22;701;52.526;13.408;2023-10-19T05:04:46;7.90;18.60
1413;DHT22;701;52.526;13.408;2023-10-19T05:07:12;8.00;18.60
1413;DHT22;701;52.526;13.408;2023-10-19T05:09:43;8.00;18.60
1413;DHT22;701;52.526;13.408;2023-10-19T05:12:09;8.00;18.60
1413;DHT22;701;52.526;13.408;2023-10-19T05:14:38;7.90;18.70
1413;DHT22;701;52.526;13.408;2023-10-19T05:17:08;8.00;18.80
1413;DHT22;701;52.526;13.408;2023-10-19T05:19:39;7.90;18.70
1413;DHT22;701;52.526;13.408;2023-10-19T05:22:07;7.90;18.80
1413;DHT22;701;52.526;13.408;2023-10-19T05:24:33;7.90;19.00
1413;DHT22;701;52.526;13.408;2023-10-19T05:26:59;7.90;19.10
1413;DHT22;701;52.526;13.408;2023-10-19T05:29:26;7.90;19.10
1413;DHT22;701;52.526;13.408;2023-10-19T05:31:53;7.90;19.10
1413;DHT22;701;52.526;13.408;2023-10-19T05:34:23;7.80;19.80
1413;DHT22;701;52.526;13.408;2023-10-19T05:36:49;7.80;19.90
1413;DHT22;701;52.526;13.408;2023-10-19T05:39:16;7.80;20.70
1413;DHT22;701;52.526;13.408;2023-10-19T05:41:44;7.70;20.90
1413;DHT22;701;52.526;13.408;2023-10-19T05:44:11;7.70;21.10
1413;DHT22;701;52.526;13.408;2023-10-19T05:46:38;7.70;21.10
1413;DHT22;701;52.526;13.408;2023-10-19T05:49:07;7.70;21.20
1413;DHT22;701;52.526;13.408;2023-10-19T05:51:34;7.60;21.40
1413;DHT22;701;52.526;13.408;2023-10-19T05:54:00;7.60;21.50
1413;DHT22;701;52.526;13.408;2023-10-19T05:56:36;7.60;21.50
1413;DHT22;701;52.526;13.408;2023-10-19T05:59:06;7.60;21.50
1413;DHT22;701;52.526;13.408;2023-10-19T06:01:33;7.70;21.40
1413;DHT22;701;52.526;13.408;2023-10-19T06:04:00;7.70;21.40
1413;DHT22;701;52.526;13.408;2023-10-19T06:06:26;7.70;21.40
1413;DHT22;701;52.526;13.408;2023-10-19T06:08:55;7.70;21.40
1413;DHT22;701;52.526;13.408;2023-10-19T06:11:21;7.70;21.50
1413;DHT22;701;52.526;13.408;2023-10-19T06:13:48;7.70;21.70
1413;DHT22;701;52.526;13.408;2023-10-19T06:16:14;7.60;21.80
1413;DHT22;701;52.526;13.408;2023-10-19T06:18:41;7.60;22.00
1413;DHT22;701;52.526;13.408;2023-10-19T06:21:09;7.70;22.20
1413;DHT22;701;52.526;13.408;2023-10-19T06:23:38;7.60;22.30
1413;DHT22;701;52.526;13.408;2023-10-19T06:26:11;7.60;22.40
1413;DHT22;701;52.526;13.408;2023-10-19T06:28:39;7.60;23.30
1413;DHT22;701;52.526;13.408;2023-10-19T06:31:06;7.50;23.20
1413;DHT22;701;52.526;13.408;2023-10-19T06:33:33;7.50;23.80
1413;DHT22;701;52.526;13.408;2023-10-19T06:36:03;7.50;24.20
1413;DHT22;701;52.526;13.408;2023-10-19T06:38:30;7.50;24.60
1413;DHT22;701;52.526;13.408;2023-10-19T06:40:59;7.40;24.80
1413;DHT22;701;52.526;13.408;2023-10-19T06:43:29;7.40;24.90
1413;DHT22;701;52.526;13.408;2023-10-19T06:45:56;7.40;25.00
1413;DHT22;701;52.526;13.408;2023-10-19T06:48:22;7.30;25.20
1413;DHT22;701;52.526;13.408;2023-10-19T06:50:48;7.40;25.40
1413;DHT22;701;52.526;13.408;2023-10-19T06:53:14;7.40;25.20
1413;DHT22;701;52.526;13.408;2023-10-19T06:55:39;7.40;25.30
1413;DHT22;701;52.526;13.408;2023-10-19T06:58:06;7.40;25.30
1413;DHT22;701;52.526;13.408;2023-10-19T07:00:32;7.40;25.10
1413;DHT22;701;52.526;13.408;2023-10-19T07:03:00;7.50;25.00
1413;DHT22;701;52.526;13.408;2023-10-19T07:05:26;7.50;25.00
1413;DHT22;701;52.526;13.408;2023-10-19T07:07:56;7.50;25.10
1413;DHT22;701;52.526;13.408;2023-10-19T07:10:23;7.50;25.20
1413;DHT22;701;52.526;13.408;2023-10-19T07:12:52;7.60;25.10
1413;DHT22;701;52.526;13.408;2023-10-19T07:15:19;7.60;25.00
1413;DHT22;701;52.526;13.408;2023-10-19T07:17:46;7.70;24.70
1413;DHT22;701;52.526;13.408;2023-10-19T07:20:14;7.70;24.70
1413;DHT22;701;52.526;13.408;2023-10-19T07:22:59;7.70;24.70
1413;DHT22;701;52.526;13.408;2023-10-19T07:25:48;7.80;24.30
1413;DHT22;701;52.526;13.408;2023-10-19T07:28:18;7.90;24.40
1413;DHT22;701;52.526;13.408;2023-10-19T07:30:45;7.90;24.10
1413;DHT22;701;52.526;13.408;2023-10-19T07:33:12;7.90;23.90
1413;DHT22;701;52.526;13.408;2023-10-19T07:35:49;8.00;23.90
1413;DHT22;701;52.526;13.408;2023-10-19T07:38:21;8.00;23.50
1413;DHT22;701;52.526;13.408;2023-10-19T07:40:47;8.10;23.60
1413;DHT22;701;52.526;13.408;2023-10-19T07:43:13;8.20;23.60
1413;DHT22;701;52.526;13.408;2023-10-19T07:45:39;8.20;23.10
1413;DHT22;701;52.526;13.408;2023-10-19T07:48:05;8.30;23.00
1413;DHT22;701;52.526;13.408;2023-10-19T07:50:35;8.30;23.00
1413;DHT22;701;52.526;13.408;2023-10-19T07:53:02;8.30;23.00
1413;DHT22;701;52.526;13.408;2023-10-19T07:55:28;8.40;22.70
1413;DHT22;701;52.526;13.408;2023-10-19T07:57:54;8.50;22.40
1413;DHT22;701;52.526;13.408;2023-10-19T08:00:20;8.50;22.10
1413;DHT22;701;52.526;13.408;2023-10-19T08:02:46;8.50;22.00
1413;DHT22;701;52.526;13.408;2023-10-19T08:05:16;8.60;21.90
1413;DHT22;701;52.526;13.408;2023-10-19T08:07:46;8.60;21.70
1413;DHT22;701;52.526;13.408;2023-10-19T08:10:18;8.70;21.50
1413;DHT22;701;52.526;13.408;2023-10-19T08:12:46;8.70;21.30
1413;DHT22;701;52.526;13.408;2023-10-19T08:15:16;8.80;21.20
1413;DHT22;701;52.526;13.408;2023-10-19T08:17:44;8.80;21.00
1413;DHT22;701;52.526;13.408;2023-10-19T08:20:12;8.80;20.40
1413;DHT22;701;52.526;13.408;2023-10-19T08:22:51;8.90;20.60
1413;DHT22;701;52.526;13.408;2023-10-19T08:25:17;9.00;20.60
1413;DHT22;701;52.526;13.408;2023-10-19T08:27:44;9.00;20.60
1413;DHT22;701;52.526;13.408;2023-10-19T08:30:12;9.00;20.30
1413;DHT22;701;52.526;13.408;2023-10-19T08:32:41;9.00;20.10
1413;DHT22;701;52.526;13.408;2023-10-19T08:35:08;9.00;20.10
1413;DHT22;701;52.526;13.408;2023-10-19T08:37:38;9.00;20.10
1413;DHT22;701;52.526;13.408;2023-10-19T08:40:10;9.00;20.10
1413;DHT22;701;52.526;13.408;2023-10-19T08:42:44;9.10;20.00
1413;DHT22;701;52.526;13.408;2023-10-19T08:45:12;9.20;19.90
1413;DHT22;701;52.526;13.408;2023-10-19T08:47:59;9.30;19.60
1413;DHT22;701;52.526;13.408;2023-10-19T08:50:28;9.30;19.40
1413;DHT22;701;52.526;13.408;2023-10-19T08:52:56;9.30;19.20
1413;DHT22;701;52.526;13.408;2023-10-19T08:55:22;9.40;19.20
1413;DHT22;701;52.526;13.408;2023-10-19T08:57:49;9.40;18.80
1413;DHT22;701;52.526;13.408;2023-10-19T09:00:16;9.40;18.80
1413;DHT22;701;52.526;13.408;2023-10-19T09:02:47;9.50;18.70
1413;DHT22;701;52.526;13.408;2023-10-19T09:05:13;9.50;18.70
1413;DHT22;701;52.526;13.408;2023-10-19T09:07:51;9.60;18.80
1413;DHT22;701;52.526;13.408;2023-10-19T09:13:08;9.80;18.50
1413;DHT22;701;52.526;13.408;2023-10-19T09:15:36;9.90;18.40
1413;DHT22;701;52.526;13.408;2023-10-19T09:18:19;10.10;17.10
1413;DHT22;701;52.526;13.408;2023-10-19T09:20:47;10.10;16.90
1413;DHT22;701;52.526;13.408;2023-10-19T09:23:23;10.10;16.60
1413;DHT22;701;52.526;13.408;2023-10-19T09:25:51;10.10;16.70
1413;DHT22;701;52.526;13.408;2023-10-19T09:28:19;10.10;16.90
1413;DHT22;701;52.526;13.408;2023-10-19T09:30:46;10.10;16.90
1413;DHT22;701;52.526;13.408;2023-10-19T09:33:15;10.00;16.80
1413;DHT22;701;52.526;13.408;2023-10-19T09:35:47;10.00;16.90
1413;DHT22;701;52.526;13.408;2023-10-19T09:38:19;10.00;16.80
1413;DHT22;701;52.526;13.408;2023-10-19T09:40:49;10.10;17.60
1413;DHT22;701;52.526;13.408;2023-10-19T09:43:24;10.00;17.30
1413;DHT22;701;52.526;13.408;2023-10-19T09:45:57;10.00;18.00
1413;DHT22;701;52.526;13.408;2023-10-19T09:48:29;10.00;17.60
1413;DHT22;701;52.526;13.408;2023-10-19T09:50:55;10.00;17.40
1413;DHT22;701;52.526;13.408;2023-10-19T09:53:25;10.00;17.50
1413;DHT22;701;52.526;13.408;2023-10-19T09:55:56;10.00;17.70
1413;DHT22;701;52.526;13.408;2023-10-19T09:58:45;10.10;18.00
1413;DHT22;701;52.526;13.408;2023-10-19T10:01:13;10.10;17.90
1413;DHT22;701;52.526;13.408;2023-10-19T10:03:52;10.10;17.90
1413;DHT22;701;52.526;13.408;2023-10-19T10:06:56;10.10;18.20
1413;DHT22;701;52.526;13.408;2023-10-19T10:09:20;10.10;18.20
1413;DHT22;701;52.526;13.408;2023-10-19T10:11:50;10.10;18.20
1413;DHT22;701;52.526;13.408;2023-10-19T10:14:25;10.10;18.40
1413;DHT22;701;52.526;13.408;2023-10-19T10:17:01;10.10;18.50
1413;DHT22;701;52.526;13.408;2023-10-19T10:19:26;10.10;18.70
1413;DHT22;701;52.526;13.408;2023-10-19T10:22:11;10.10;18.90
1413;DHT22;701;52.526;13.408;2023-10-19T10:24:42;10.00;19.10
1413;DHT22;701;52.526;13.408;2023-10-19T10:27:07;10.00;19.30
1413;DHT22;701;52.526;13.408;2023-10-19T10:29:35;10.00;19.40
1413;DHT22;701;52.526;13.408;2023-10-19T10:32:01;10.00;19.70
1413;DHT22;701;52.526;13.408;2023-10-19T10:39:29;9.80;22.20
1413;DHT22;701;52.526;13.408;2023-10-19T10:42:00;9.80;23.40
1413;DHT22;701;52.526;13.408;2023-10-19T10:44:37;9.70;24.10
1413;DHT22;701;52.526;13.408;2023-10-19T10:47:12;9.70;24.60
1413;DHT22;701;52.526;13.408;2023-10-19T10:49:58;9.60;25.10
1413;DHT22;701;52.526;13.408;2023-10-19T10:52:31;9.50;25.50
1413;DHT22;701;52.526;13.408;2023-10-19T10:55:11;9.50;25.90
1413;DHT22;701;52.526;13.408;2023-10-19T10:57:38;9.40;26.40
1413;DHT22;701;52.526;13.408;2023-10-19T11:02:35;9.40;26.40
1413;DHT22;701;52.526;13.408;2023-10-19T11:05:02;9.40;26.10
1413;DHT22;701;52.526;13.408;2023-10-19T11:07:28;9.40;26.10
1413;DHT22;701;52.526;13.408;2023-10-19T11:09:55;9.40;26.20
1413;DHT22;701;52.526;13.408;2023-10-19T11:12:21;9.40;26.30
1413;DHT22;701;52.526;13.408;2023-10-19T11:14:58;9.40;26.40
1413;DHT22;701;52.526;13.408;2023-10-19T11:17:25;9.30;26.80
1413;DHT22;701;52.526;13.408;2023-10-19T11:19:56;9.30;26.90
1413;DHT22;701;52.526;13.408;2023-10-19T11:22:23;9.30;27.30
1413;DHT22;701;52.526;13.408;2023-10-19T11:24:53;9.30;27.40
1413;DHT22;701;52.526;13.408;2023-10-19T11:27:26;9.30;27.60
1413;DHT22;701;52.526;13.408;2023-10-19T11:29:59;9.30;27.80
1413;DHT22;701;52.526;13.408;2023-10-19T11:32:25;9.20;27.80
1413;DHT22;701;52.526;13.408;2023-10-19T11:34:55;9.20;28.30
1413;DHT22;701;52.526;13.408;2023-10-19T11:37:22;9.20;28.60
1413;DHT22;701;52.526;13.408;2023-10-19T11:39:48;9.10;28.70
1413;DHT22;701;52.526;13.408;2023-10-19T11:42:17;9.10;29.10
1413;DHT22;701;52.526;13.408;2023-10-19T11:44:44;9.00;29.80
1413;DHT22;701;52.526;13.408;2023-10-19T11:47:10;9.10;30.00
1413;DHT22;701;52.526;13.408;2023-10-19T11:49:36;9.20;29.80
1413;DHT22;701;52.526;13.408;2023-10-19T11:52:06;9.20;29.90
1413;DHT22;701;52.526;13.408;2023-10-19T11:54:35;9.20;29.90
1413;DHT22;701;52.526;13.408;2023-10-19T11:57:02;9.10;30.00
1413;DHT22;701;52.526;13.408;2023-10-19T11:59:28;9.20;30.20
1413;DHT22;701;52.526;13.408;2023-10-19T12:01:54;9.10;30.50
1413;DHT22;701;52.526;13.408;2023-10-19T12:04:20;9.20;30.40
1413;DHT22;701;52.526;13.408;2023-10-19T12:06:46;9.20;30.80
1413;DHT22;701;52.526;13.408;2023-10-19T12:09:12;9.20;30.80
1413;DHT22;701;52.526;13.408;2023-10-19T12:11:41;9.20;31.00
1413;DHT22;701;52.526;13.408;2023-10-19T12:14:07;9.20;31.40
1413;DHT22;701;52.526;13.408;2023-10-19T12:16:37;9.20;31.50
1413;DHT22;701;52.526;13.408;2023-10-19T12:19:05;9.20;31.30
1413;DHT22;701;52.526;13.408;2023-10-19T12:21:31;9.20;31.30
1413;DHT22;701;52.526;13.408;2023-10-19T12:23:56;9.20;31.50
1413;DHT22;701;52.526;13.408;2023-10-19T12:26:24;9.20;31.50
1413;DHT22;701;52.526;13.408;2023-10-19T12:28:50;9.20;31.50
1413;DHT22;701;52.526;13.408;2023-10-19T12:31:16;9.20;31.50
1413;DHT22;701;52.526;13.408;2023-10-19T12:33:44;9.20;31.50
1413;DHT22;701;52.526;13.408;2023-10-19T12:36:10;9.20;31.60
1413;DHT22;701;52.526;13.408;2023-10-19T12:38:57;9.20;32.70
1413;DHT22;701;52.526;13.408;2023-10-19T12:41:23;9.10;32.60
1413;DHT22;701;52.526;13.408;2023-10-19T12:43:53;9.20;32.90
1413;DHT22;701;52.526;13.408;2023-10-19T12:46:33;9.20;33.20
1413;DHT22;701;52.526;13.408;2023-10-19T12:49:04;9.20;34.20
1413;DHT22;701;52.526;13.408;2023-10-19T12:51:34;9.10;34.00
1413;DHT22;701;52.526;13.408;2023-10-19T12:54:00;9.10;34.40
1413;DHT22;701;52.526;13.408;2023-10-19T12:56:28;9.10;34.30
1413;DHT22;701;52.526;13.408;2023-10-19T12:58:54;9.10;34.30
1413;DHT22;701;52.526;13.408;2023-10-19T13:01:20;9.10;34.20
1413;DHT22;701;52.526;13.408;2023-10-19T13:03:47;9.10;34.50
1413;DHT22;701;52.526;13.408;2023-10-19T13:06:15;9.00;34.70
1413;DHT22;701;52.526;13.408;2023-10-19T13:08:41;9.00;34.80
1413;DHT22;701;52.526;13.408;2023-10-19T13:11:08;9.10;34.80
1413;DHT22;701;52.526;13.408;2023-10-19T13:13:34;9.00;34.80
1413;DHT22;701;52.526;13.408;2023-10-19T13:16:02;9.10;34.80
1413;DHT22;701;52.526;13.408;2023-10-19T13:18:31;9.00;34.60
1413;DHT22;701;52.526;13.408;2023-10-19T13:21:00;9.00;34.50
1413;DHT22;701;52.526;13.408;2023-10-19T13:23:31;9.00;34.90
1413;DHT22;701;52.526;13.408;2023-10-19T13:25:59;9.00;35.10
1413;DHT22;701;52.526;13.408;2023-10-19T13:28:35;9.00;35.20
1413;DHT22;701;52.526;13.408;2023-10-19T13:31:03;8.90;35.20
1413;DHT22;701;52.526;13.408;2023-10-19T13:33:29;8.90;35.40
1413;DHT22;701;52.526;13.408;2023-10-19T13:35:55;8.90;35.60
1413;DHT22;701;52.526;13.408;2023-10-19T13:38:20;8.90;35.60
1413;DHT22;701;52.526;13.408;2023-10-19T13:40:46;8.80;35.60
1413;DHT22;701;52.526;13.408;2023-10-19T13:43:13;8.80;36.30
1413;DHT22;701;52.526;13.408;2023-10-19T13:45:44;8.80;35.60
1413;DHT22;701;52.526;13.408;2023-10-19T13:48:11;8.80;35.60
1413;DHT22;701;52.526;13.408;2023-10-19T13:50:56;8.80;35.60
1413;DHT22;701;52.526;13.408;2023-10-19T13:53:42;8.80;35.60
1413;DHT22;701;52.526;13.408;2023-10-19T13:56:10;8.90;35.70
1413;DHT22;701;52.526;13.408;2023-10-19T13:58:36;8.80;35.60
1413;DHT22;701;52.526;13.408;2023-10-19T14:01:06;8.80;35.40
1413;DHT22;701;52.526;13.408;2023-10-19T14:03:32;8.80;35.60
1413;DHT22;701;52.526;13.408;2023-10-19T14:05:57;8.80;35.30
1413;DHT22;701;52.526;13.408;2023-10-19T14:08:23;8.80;35.40
1413;DHT22;701;52.526;13.408;2023-10-19T14:10:49;8.80;35.60
1413;DHT22;701;52.526;13.408;2023-10-19T14:13:15;8.70;35.80
1413;DHT22;701;52.526;13.408;2023-10-19T14:15:41;8.70;36.20
1413;DHT22;701;52.526;13.408;2023-10-19T14:18:08;8.70;36.30
1413;DHT22;701;52.526;13.408;2023-10-19T14:20:34;8.70;36.30
1413;DHT22;701;52.526;13.408;2023-10-19T14:23:01;8.70;36.40
1413;DHT22;701;52.526;13.408;2023-10-19T14:25:30;8.80;36.50
1413;DHT22;701;52.526;13.408;2023-10-19T14:27:56;8.80;36.40
1413;DHT22;701;52.526;13.408;2023-10-19T14:30:27;8.80;36.50
1413;DHT22;701;52.526;13.408;2023-10-19T14:32:55;8.80;36.40
1413;DHT22;701;52.526;13.408;2023-10-19T14:35:24;8.80;36.70
1413;DHT22;701;52.526;13.408;2023-10-19T14:37:53;8.80;36.60
1413;DHT22;701;52.526;13.408;2023-10-19T14:40:26;8.80;36.60
1413;DHT22;701;52.526;13.408;2023-10-19T14:42:53;8.70;36.10
1413;DHT22;701;52.526;13.408;2023-10-19T14:45:20;8.70;36.30
1413;DHT22;701;52.526;13.408;2023-10-19T14:47:50;8.70;36.50
1413;DHT22;701;52.526;13.408;2023-10-19T14:50:21;8.70;36.90
1413;DHT22;701;52.526;13.408;2023-10-19T14:52:49;8.70;36.60
1413;DHT22;701;52.526;13.408;2023-10-19T14:55:16;8.70;37.70
1413;DHT22;701;52.526;13.408;2023-10-19T14:57:45;8.60;37.50
1413;DHT22;701;52.526;13.408;2023-10-19T15:00:15;8.60;37.90
1413;DHT22;701;52.526;13.408;2023-10-19T15:02:51;8.60;38.30
1413;DHT22;701;52.526;13.408;2023-10-19T15:05:17;8.60;38.40
1413;DHT22;701;52.526;13.408;2023-10-19T15:07:51;8.50;38.50
1413;DHT22;701;52.526;13.408;2023-10-19T15:10:25;8.50;38.60
1413;DHT22;701;52.526;13.408;2023-10-19T15:12:52;8.50;38.80
1413;DHT22;701;52.526;13.408;2023-10-19T15:15:18;8.50;39.40
1413;DHT22;701;52.526;13.408;2023-10-19T15:17:44;8.50;39.80
1413;DHT22;701;52.526;13.408;2023-10-19T15:20:12;8.50;39.80
1413;DHT22;701;52.526;13.408;2023-10-19T15:22:40;8.50;39.80
1413;DHT22;701;52.526;13.408;2023-10-19T15:25:07;8.50;39.80
1413;DHT22;701;52.526;13.408;2023-10-19T15:27:37;8.50;39.80
1413;DHT22;701;52.526;13.408;2023-10-19T15:30:04;8.50;39.80
1413;DHT22;701;52.526;13.408;2023-10-19T15:32:35;8.50;40.40
1413;DHT22;701;52.526;13.408;2023-10-19T15:35:02;8.50;39.80
1413;DHT22;701;52.526;13.408;2023-10-19T15:37:28;8.60;40.10
1413;DHT22;701;52.526;13.408;2023-10-19T15:39:53;8.60;40.00
1413;DHT22;701;52.526;13.408;2023-10-19T15:42:20;8.60;40.10
1413;DHT22;701;52.526;13.408;2023-10-19T15:44:48;8.60;40.20
1413;DHT22;701;52.526;13.408;2023-10-19T15:47:15;8.50;40.60
1413;DHT22;701;52.526;13.408;2023-10-19T15:49:48;8.50;40.70
1413;DHT22;701;52.526;13.408;2023-10-19T15:52:16;8.50;40.90
1413;DHT22;701;52.526;13.408;2023-10-19T15:54:43;8.60;41.00
1413;DHT22;701;52.526;13.408;2023-10-19T15:57:09;8.60;41.00
1413;DHT22;701;52.526;13.408;2023-10-19T15:59:35;8.50;41.00
1413;DHT22;701;52.526;13.408;2023-10-19T16:02:01;8.50;41.60
1413;DHT22;701;52.526;13.408;2023-10-19T16:04:26;8.50;41.50
1413;DHT22;701;52.526;13.408;2023-10-19T16:06:52;8.60;41.50
1413;DHT22;701;52.526;13.408;2023-10-19T16:09:18;8.50;41.50
1413;DHT22;701;52.526;13.408;2023-10-19T16:11:46;8.60;41.80
1413;DHT22;701;52.526;13.408;2023-10-19T16:14:14;8.50;42.00
1413;DHT22;701;52.526;13.408;2023-10-19T16:16:41;8.60;42.10
1413;DHT22;701;52.526;13.408;2023-10-19T16:19:06;8.50;42.00
1413;DHT22;701;52.526;13.408;2023-10-19T16:21:33;8.50;42.20
1413;DHT22;701;52.526;13.408;2023-10-19T16:23:59;8.50;42.40
1413;DHT22;701;52.526;13.408;2023-10-19T16:26:25;8.60;42.60
1413;DHT22;701;52.526;13.408;2023-10-19T16:28:51;8.50;42.40
1413;DHT22;701;52.526;13.408;2023-10-19T16:31:17;8.50;42.40
1413;DHT22;701;52.526;13.408;2023-10-19T16:33:42;8.60;42.40
1413;DHT22;701;52.526;13.408;2023-10-19T16:36:08;8.60;42.40
1413;DHT22;701;52.526;13.408;2023-10-19T16:38:34;8.60;42.30
1413;DHT22;701;52.526;13.408;2023-10-19T16:41:00;8.60;42.20
1413;DHT22;701;52.526;13.408;2023-10-19T16:43:26;8.60;42.70
1413;DHT22;701;52.526;13.408;2023-10-19T16:45:53;8.60;43.40